createdAt,value
2022-12-05T00:01:20.306Z,99277.00
2022-12-05T00:02:53.396Z,99285.00
2022-12-05T00:04:26.559Z,99292.00
2022-12-05T00:05:59.737Z,99278.00
2022-12-05T00:07:32.975Z,99285.00
2022-12-05T00:09:09.088Z,99282.00
2022-12-05T00:10:41.312Z,99278.00
2022-12-05T00:12:14.411Z,99282.00
2022-12-05T00:13:48.926Z,99287.00
2022-12-05T00:15:23.444Z,99287.00
2022-12-05T00:16:56.636Z,99292.00
2022-12-05T00:18:29.913Z,99296.00
2022-12-05T00:20:02.793Z,99292.00
2022-12-05T00:21:38.360Z,99287.00
2022-12-05T00:23:11.457Z,99284.00
2022-12-05T00:24:44.521Z,99286.00
2022-12-05T00:26:17.222Z,99294.00
2022-12-05T00:27:50.760Z,99295.00
2022-12-05T00:29:23.860Z,99289.00
2022-12-05T00:30:57.641Z,99282.00
2022-12-05T00:32:31.417Z,99285.00
2022-12-05T00:34:05.246Z,99288.00
2022-12-05T00:35:38.469Z,99293.00
2022-12-05T00:37:11.616Z,99294.00
2022-12-05T00:38:45.344Z,99289.00
2022-12-05T00:40:18.684Z,99296.00
2022-12-05T00:41:50.806Z,99294.00
2022-12-05T00:43:23.964Z,99288.00
2022-12-05T00:44:57.050Z,99288.00
2022-12-05T00:46:34.847Z,99276.00
2022-12-05T00:48:08.051Z,99287.00
2022-12-05T00:49:41.168Z,99284.00
2022-12-05T00:51:18.319Z,99283.00
2022-12-05T00:52:51.505Z,99283.00
2022-12-05T00:54:24.646Z,99282.00
2022-12-05T00:56:02.318Z,99288.00
2022-12-05T00:57:35.440Z,99280.00
2022-12-05T00:59:09.911Z,99276.00
2022-12-05T01:00:43.026Z,99271.00
2022-12-05T01:02:17.604Z,99271.00
2022-12-05T01:03:53.499Z,99272.00
2022-12-05T01:05:26.757Z,99266.00
2022-12-05T01:07:00.182Z,99273.00
2022-12-05T01:08:34.607Z,99279.00
2022-12-05T01:10:09.302Z,99280.00
2022-12-05T01:11:43.571Z,99276.00
2022-12-05T01:13:15.723Z,99273.00
2022-12-05T01:14:48.926Z,99271.00
2022-12-05T01:16:25.408Z,99271.00
2022-12-05T01:17:59.915Z,99272.00
2022-12-05T01:19:33.871Z,99278.00
2022-12-05T01:21:08.569Z,99276.00
2022-12-05T01:22:41.716Z,99274.00
2022-12-05T01:24:16.099Z,99285.00
2022-12-05T01:25:51.291Z,99284.00
2022-12-05T01:27:24.617Z,99286.00
2022-12-05T01:28:58.285Z,99284.00
2022-12-05T01:30:30.719Z,99285.00
2022-12-05T01:32:06.288Z,99284.00
2022-12-05T01:33:40.104Z,99292.00
2022-12-05T01:35:13.529Z,99289.00
2022-12-05T01:36:47.831Z,99285.00
2022-12-05T01:38:21.209Z,99286.00
2022-12-05T01:39:55.027Z,99284.00
2022-12-05T01:41:32.162Z,99290.00
2022-12-05T01:43:10.506Z,99289.00
2022-12-05T01:45:08.125Z,99292.00
2022-12-05T01:46:47.476Z,99288.00
2022-12-05T01:48:27.732Z,99285.00
2022-12-05T01:50:02.828Z,99282.00
2022-12-05T01:51:40.374Z,99281.00
2022-12-05T01:53:13.329Z,99283.00
2022-12-05T01:54:52.028Z,99290.00
2022-12-05T01:56:25.367Z,99289.00
2022-12-05T01:58:00.188Z,99293.00
2022-12-05T01:59:39.265Z,99290.00
2022-12-05T02:01:14.727Z,99289.00
2022-12-05T02:02:53.698Z,99295.00
2022-12-05T02:04:27.628Z,99295.00
2022-12-05T02:06:02.841Z,99289.00
2022-12-05T02:07:40.852Z,99291.00
2022-12-05T02:09:14.337Z,99297.00
2022-12-05T02:10:52.179Z,99283.00
2022-12-05T02:12:25.389Z,99289.00
2022-12-05T02:14:20.095Z,99289.00
2022-12-05T02:16:03.170Z,99289.00
2022-12-05T02:17:52.641Z,99288.00
2022-12-05T02:20:04.573Z,99294.00
2022-12-05T02:22:05.398Z,99297.00
2022-12-05T02:24:20.532Z,99310.00
2022-12-05T02:26:26.597Z,99298.00
2022-12-05T02:28:46.333Z,99310.00
2022-12-05T02:30:23.813Z,99297.00
2022-12-05T02:32:06.926Z,99308.00
2022-12-05T02:33:47.371Z,99295.00
2022-12-05T02:35:38.433Z,99291.00
2022-12-05T02:37:18.865Z,99304.00
2022-12-05T02:39:03.466Z,99298.00
2022-12-05T02:40:47.391Z,99289.00
2022-12-05T02:42:30.133Z,99292.00
2022-12-05T02:44:08.608Z,99305.00
2022-12-05T02:45:48.983Z,99306.00
2022-12-05T02:47:30.148Z,99296.00
2022-12-05T02:49:10.530Z,99305.00
2022-12-05T02:50:45.112Z,99310.00
2022-12-05T02:52:19.817Z,99310.00
2022-12-05T02:53:56.047Z,99307.00
2022-12-05T02:55:31.805Z,99308.00
2022-12-05T02:57:06.994Z,99308.00
2022-12-05T02:58:45.552Z,99311.00
2022-12-05T03:00:19.575Z,99308.00
2022-12-05T03:01:54.171Z,99300.00
2022-12-05T03:03:29.102Z,99306.00
2022-12-05T03:05:15.929Z,99296.00
2022-12-05T03:06:54.885Z,99312.00
2022-12-05T03:08:34.381Z,99307.00
2022-12-05T03:10:11.385Z,99311.00
2022-12-05T03:11:50.525Z,99308.00
2022-12-05T03:13:30.195Z,99314.00
2022-12-05T03:15:10.481Z,99315.00
2022-12-05T03:16:50.985Z,99318.00
2022-12-05T03:18:29.298Z,99318.00
2022-12-05T03:20:14.438Z,99313.00
2022-12-05T03:21:56.099Z,99315.00
2022-12-05T03:23:39.023Z,99311.00
2022-12-05T03:25:14.167Z,99320.00
2022-12-05T03:26:58.159Z,99307.00
2022-12-05T03:28:40.148Z,99299.00
2022-12-05T03:30:17.843Z,99313.00
2022-12-05T03:32:03.683Z,99312.00
2022-12-05T03:33:46.072Z,99308.00
2022-12-05T03:35:27.298Z,99317.00
2022-12-05T03:37:07.159Z,99305.00
2022-12-05T03:38:50.220Z,99308.00
2022-12-05T03:40:35.467Z,99320.00
2022-12-05T03:42:14.117Z,99298.00
2022-12-05T03:43:56.372Z,99300.00
2022-12-05T03:45:40.625Z,99310.00
2022-12-05T03:47:20.521Z,99305.00
2022-12-05T03:49:03.716Z,99311.00
2022-12-05T03:50:42.334Z,99304.00
2022-12-05T03:52:21.220Z,99317.00
2022-12-05T03:54:02.500Z,99318.00
2022-12-05T03:55:40.631Z,99319.00
2022-12-05T03:57:21.332Z,99316.00
2022-12-05T03:59:03.120Z,99316.00
2022-12-05T04:00:41.887Z,99314.00
2022-12-05T04:02:21.924Z,99324.00
2022-12-05T04:04:01.776Z,99320.00
2022-12-05T04:05:44.229Z,99320.00
2022-12-05T04:07:20.173Z,99314.00
2022-12-05T04:08:59.693Z,99315.00
2022-12-05T04:10:48.496Z,99317.00
2022-12-05T04:12:28.306Z,99322.00
2022-12-05T04:14:07.640Z,99320.00
2022-12-05T04:15:54.920Z,99315.00
2022-12-05T04:17:37.084Z,99321.00
2022-12-05T04:19:19.699Z,99317.00
2022-12-05T04:21:12.945Z,99316.00
2022-12-05T04:22:47.167Z,99321.00
2022-12-05T04:24:58.049Z,99315.00
2022-12-05T04:26:33.587Z,99323.00
2022-12-05T04:28:28.404Z,99321.00
2022-12-05T04:30:07.996Z,99317.00
2022-12-05T04:31:47.617Z,99325.00
2022-12-05T04:33:34.531Z,99319.00
2022-12-05T04:35:17.968Z,99326.00
2022-12-05T04:36:57.546Z,99325.00
2022-12-05T04:38:41.495Z,99326.00
2022-12-05T04:40:23.321Z,99325.00
2022-12-05T04:42:04.237Z,99333.00
2022-12-05T04:43:41.711Z,99340.00
2022-12-05T04:45:21.104Z,99337.00
2022-12-05T04:46:58.041Z,99339.00
2022-12-05T04:48:33.643Z,99326.00
2022-12-05T04:50:13.187Z,99329.00
2022-12-05T04:51:48.353Z,99326.00
2022-12-05T04:53:24.738Z,99332.00
2022-12-05T04:55:06.313Z,99323.00
2022-12-05T04:56:42.739Z,99322.00
2022-12-05T04:58:20.378Z,99327.00
2022-12-05T04:59:53.150Z,99326.00
2022-12-05T05:01:36.091Z,99327.00
2022-12-05T05:03:17.953Z,99322.00
2022-12-05T05:04:56.225Z,99315.00
2022-12-05T05:06:30.838Z,99323.00
2022-12-05T05:08:03.245Z,99323.00
2022-12-05T05:09:37.197Z,99319.00
2022-12-05T05:11:16.748Z,99325.00
2022-12-05T05:12:49.924Z,99319.00
2022-12-05T05:14:23.104Z,99323.00
2022-12-05T05:15:56.394Z,99330.00
2022-12-05T05:17:30.674Z,99326.00
2022-12-05T05:19:04.751Z,99335.00
2022-12-05T05:20:37.970Z,99343.00
2022-12-05T05:22:12.381Z,99328.00
2022-12-05T05:23:45.600Z,99339.00
2022-12-05T05:25:19.454Z,99334.00
2022-12-05T05:26:57.299Z,99335.00
2022-12-05T05:28:29.946Z,99343.00
2022-12-05T05:30:03.105Z,99333.00
2022-12-05T05:31:37.998Z,99334.00
2022-12-05T05:33:11.114Z,99333.00
2022-12-05T05:34:44.275Z,99340.00
2022-12-05T05:36:18.160Z,99346.00
2022-12-05T05:37:52.698Z,99343.00
2022-12-05T05:39:26.777Z,99336.00
2022-12-05T05:41:00.181Z,99342.00
2022-12-05T05:42:33.473Z,99339.00
2022-12-05T05:44:07.085Z,99341.00
2022-12-05T05:45:39.249Z,99349.00
2022-12-05T05:47:12.414Z,99353.00
2022-12-05T05:48:45.584Z,99347.00
2022-12-05T05:50:21.816Z,99349.00
2022-12-05T05:51:55.648Z,99356.00
2022-12-05T05:53:30.230Z,99359.00
2022-12-05T05:55:04.852Z,99358.00
2022-12-05T05:56:37.985Z,99353.00
2022-12-05T05:58:11.090Z,99348.00
2022-12-05T05:59:44.218Z,99360.00
2022-12-05T06:01:20.312Z,99354.00
2022-12-05T06:02:53.573Z,99358.00
2022-12-05T06:04:26.981Z,99361.00
2022-12-05T06:06:02.600Z,99352.00
2022-12-05T06:07:35.839Z,99366.00
2022-12-05T06:09:10.934Z,99366.00
2022-12-05T06:10:44.304Z,99366.00
2022-12-05T06:12:17.715Z,99360.00
2022-12-05T06:13:51.068Z,99363.00
2022-12-05T06:15:24.879Z,99370.00
2022-12-05T06:16:58.056Z,99362.00
2022-12-05T06:18:31.327Z,99373.00
2022-12-05T06:20:05.248Z,99360.00
2022-12-05T06:21:38.496Z,99373.00
2022-12-05T06:23:11.849Z,99371.00
2022-12-05T06:24:46.387Z,99367.00
2022-12-05T06:26:21.514Z,99364.00
2022-12-05T06:27:54.483Z,99370.00
2022-12-05T06:29:31.143Z,99366.00
2022-12-05T06:31:09.722Z,99370.00
2022-12-05T06:32:42.912Z,99368.00
2022-12-05T06:34:17.160Z,99377.00
2022-12-05T06:35:50.506Z,99375.00
2022-12-05T06:37:23.802Z,99374.00
2022-12-05T06:38:58.361Z,99370.00
2022-12-05T06:40:32.813Z,99374.00
2022-12-05T06:42:06.356Z,99375.00
2022-12-05T06:43:39.512Z,99380.00
2022-12-05T06:45:13.168Z,99378.00
2022-12-05T06:46:46.380Z,99379.00
2022-12-05T06:48:19.599Z,99389.00
2022-12-05T06:49:52.678Z,99381.00
2022-12-05T06:51:26.086Z,99382.00
2022-12-05T06:52:59.237Z,99383.00
2022-12-05T06:54:32.439Z,99393.00
2022-12-05T06:56:12.407Z,99387.00
2022-12-05T06:57:45.616Z,99394.00
2022-12-05T06:59:18.775Z,99397.00
2022-12-05T07:01:09.470Z,99383.00
2022-12-05T07:02:43.005Z,99396.00
2022-12-05T07:04:20.208Z,99395.00
2022-12-05T07:05:53.353Z,99397.00
2022-12-05T07:07:26.682Z,99404.00
2022-12-05T07:09:00.088Z,99404.00
2022-12-05T07:10:33.874Z,99400.00
2022-12-05T07:12:08.993Z,99407.00
2022-12-05T07:13:42.276Z,99395.00
2022-12-05T07:15:15.481Z,99405.00
2022-12-05T07:16:48.567Z,99392.00
2022-12-05T07:18:21.756Z,99394.00
2022-12-05T07:19:55.589Z,99402.00
2022-12-05T07:21:29.077Z,99399.00
2022-12-05T07:23:02.177Z,99409.00
2022-12-05T07:24:35.426Z,99408.00
2022-12-05T07:26:15.911Z,99400.00
2022-12-05T07:27:50.361Z,99411.00
2022-12-05T07:29:23.555Z,99414.00
2022-12-05T07:31:05.040Z,99413.00
2022-12-05T07:32:38.696Z,99414.00
2022-12-05T07:34:12.252Z,99409.00
2022-12-05T07:35:45.412Z,99412.00
2022-12-05T07:37:18.856Z,99413.00
2022-12-05T07:38:57.758Z,99415.00
2022-12-05T07:40:31.948Z,99410.00
2022-12-05T07:42:05.337Z,99416.00
2022-12-05T07:43:39.821Z,99416.00
2022-12-05T07:45:13.128Z,99413.00
2022-12-05T07:46:46.308Z,99413.00
2022-12-05T07:48:19.474Z,99418.00
2022-12-05T07:49:52.822Z,99422.00
2022-12-05T07:51:26.393Z,99432.00
2022-12-05T07:53:00.066Z,99422.00
2022-12-05T07:54:34.027Z,99416.00
2022-12-05T07:56:10.267Z,99420.00
2022-12-05T07:57:43.391Z,99421.00
2022-12-05T07:59:17.887Z,99417.00
2022-12-05T08:00:50.095Z,99418.00
2022-12-05T08:02:23.691Z,99431.00
2022-12-05T08:04:01.253Z,99424.00
2022-12-05T08:05:35.198Z,99430.00
2022-12-05T08:07:11.430Z,99428.00
2022-12-05T08:08:45.829Z,99435.00
2022-12-05T08:10:19.216Z,99432.00
2022-12-05T08:11:53.040Z,99432.00
2022-12-05T08:13:26.375Z,99434.00
2022-12-05T08:15:01.029Z,99437.00
2022-12-05T08:16:35.162Z,99435.00
2022-12-05T08:18:08.285Z,99440.00
2022-12-05T08:19:41.422Z,99441.00
2022-12-05T08:21:17.550Z,99430.00
2022-12-05T08:22:54.259Z,99446.00
2022-12-05T08:24:27.366Z,99437.00
2022-12-05T08:26:03.996Z,99447.00
2022-12-05T08:27:37.223Z,99457.00
2022-12-05T08:29:13.541Z,99452.00
2022-12-05T08:31:03.334Z,99461.00
2022-12-05T08:32:36.481Z,99464.00
2022-12-05T08:34:13.325Z,99459.00
2022-12-05T08:35:46.426Z,99463.00
2022-12-05T08:37:19.620Z,99474.00
2022-12-05T08:38:57.869Z,99464.00
2022-12-05T08:40:31.256Z,99468.00
2022-12-05T08:42:04.555Z,99468.00
2022-12-05T08:43:37.973Z,99478.00
2022-12-05T08:45:11.792Z,99469.00
2022-12-05T08:46:49.924Z,99468.00
2022-12-05T08:48:28.986Z,99468.00
2022-12-05T08:50:02.826Z,99478.00
2022-12-05T08:51:36.159Z,99472.00
2022-12-05T08:53:09.279Z,99471.00
2022-12-05T08:54:42.435Z,99470.00
2022-12-05T08:56:16.028Z,99474.00
2022-12-05T08:57:49.182Z,99478.00
2022-12-05T08:59:22.322Z,99473.00
2022-12-05T09:00:55.450Z,99482.00
2022-12-05T09:02:29.960Z,99483.00
2022-12-05T09:04:04.493Z,99482.00
2022-12-05T09:05:37.610Z,99474.00
2022-12-05T09:07:10.868Z,99479.00
2022-12-05T09:08:44.745Z,99479.00
2022-12-05T09:10:18.690Z,99478.00
2022-12-05T09:11:52.205Z,99488.00
2022-12-05T09:13:25.621Z,99491.00
2022-12-05T09:14:58.894Z,99477.00
2022-12-05T09:16:39.433Z,99483.00
2022-12-05T09:18:15.174Z,99480.00
2022-12-05T09:19:53.869Z,99486.00
2022-12-05T09:21:30.118Z,99492.00
2022-12-05T09:23:03.217Z,99490.00
2022-12-05T09:24:36.488Z,99487.00
2022-12-05T09:26:14.895Z,99489.00
2022-12-05T09:27:48.060Z,99490.00
2022-12-05T09:29:21.297Z,99492.00
2022-12-05T09:31:01.308Z,99501.00
2022-12-05T09:32:34.497Z,99504.00
2022-12-05T09:34:09.229Z,99504.00
2022-12-05T09:35:42.318Z,99496.00
2022-12-05T09:37:37.680Z,99497.00
2022-12-05T09:39:09.197Z,99499.00
2022-12-05T09:40:44.148Z,99496.00
2022-12-05T09:42:35.848Z,99498.00
2022-12-05T09:44:22.689Z,99496.00
2022-12-05T09:46:09.872Z,99497.00
2022-12-05T09:47:56.190Z,99499.00
2022-12-05T09:49:34.891Z,99497.00
2022-12-05T09:51:12.770Z,99497.00
2022-12-05T09:53:12.178Z,99488.00
2022-12-05T09:54:46.015Z,99493.00
2022-12-05T09:56:27.986Z,99490.00
2022-12-05T09:58:04.476Z,99487.00
2022-12-05T09:59:37.779Z,99482.00
2022-12-05T10:01:32.315Z,99487.00
2022-12-05T10:03:23.124Z,99487.00
2022-12-05T10:05:07.448Z,99479.00
2022-12-05T10:06:46.999Z,99486.00
2022-12-05T10:08:30.255Z,99494.00
2022-12-05T10:10:25.872Z,99493.00
2022-12-05T10:12:11.394Z,99493.00
2022-12-05T10:13:58.848Z,99488.00
2022-12-05T10:15:39.033Z,99493.00
2022-12-05T10:17:23.549Z,99490.00
2022-12-05T10:19:03.497Z,99487.00
2022-12-05T10:20:47.510Z,99483.00
2022-12-05T10:22:28.599Z,99482.00
2022-12-05T10:24:05.741Z,99474.00
2022-12-05T10:25:40.197Z,99474.00
2022-12-05T10:27:20.516Z,99485.00
2022-12-05T10:29:03.814Z,99486.00
2022-12-05T10:30:40.817Z,99501.00
2022-12-05T10:32:19.661Z,99491.00
2022-12-05T10:34:05.866Z,99488.00
2022-12-05T10:35:42.556Z,99490.00
2022-12-05T10:37:19.314Z,99499.00
2022-12-05T10:38:52.639Z,99496.00
2022-12-05T10:40:31.094Z,99501.00
2022-12-05T10:42:05.661Z,99497.00
2022-12-05T10:43:44.086Z,99493.00
2022-12-05T10:45:22.285Z,99489.00
2022-12-05T10:46:55.407Z,99490.00
2022-12-05T10:48:31.356Z,99496.00
2022-12-05T10:50:16.595Z,99501.00
2022-12-05T10:51:52.428Z,99493.00
2022-12-05T10:53:29.081Z,99493.00
2022-12-05T10:55:06.584Z,99493.00
2022-12-05T10:56:44.033Z,99494.00
2022-12-05T10:58:23.781Z,99492.00
2022-12-05T10:59:58.157Z,99488.00
2022-12-05T11:01:32.377Z,99502.00
2022-12-05T11:03:06.771Z,99485.00
2022-12-05T11:04:45.931Z,99493.00
2022-12-05T11:06:27.029Z,99486.00
2022-12-05T11:08:01.644Z,99486.00
2022-12-05T11:09:38.678Z,99493.00
2022-12-05T11:11:23.961Z,99490.00
2022-12-05T11:13:00.529Z,99476.00
2022-12-05T11:14:36.084Z,99484.00
2022-12-05T11:16:26.693Z,99476.00
2022-12-05T11:18:27.275Z,99484.00
2022-12-05T11:20:01.752Z,99476.00
2022-12-05T11:21:43.963Z,99475.00
2022-12-05T11:23:26.966Z,99486.00
2022-12-05T11:25:00.749Z,99478.00
2022-12-05T11:26:38.036Z,99480.00
2022-12-05T11:28:34.996Z,99467.00
2022-12-05T11:30:21.301Z,99471.00
2022-12-05T11:31:54.484Z,99474.00
2022-12-05T11:33:30.088Z,99468.00
2022-12-05T11:35:19.146Z,99478.00
2022-12-05T11:36:58.949Z,99482.00
2022-12-05T11:38:34.765Z,99481.00
2022-12-05T11:40:17.377Z,99477.00
2022-12-05T11:42:11.547Z,99469.00
2022-12-05T11:44:24.033Z,99464.00
2022-12-05T11:46:11.431Z,99473.00
2022-12-05T11:48:05.267Z,99473.00
2022-12-05T11:50:05.484Z,99472.00
2022-12-05T11:51:44.608Z,99463.00
2022-12-05T11:53:41.121Z,99468.00
2022-12-05T11:55:22.676Z,99466.00
2022-12-05T11:57:03.119Z,99470.00
2022-12-05T11:58:57.433Z,99468.00
2022-12-05T12:00:47.430Z,99468.00
2022-12-05T12:02:37.544Z,99473.00
2022-12-05T12:04:51.593Z,99470.00
2022-12-05T12:06:51.853Z,99462.00
2022-12-05T12:08:28.515Z,99463.00
2022-12-05T12:10:20.821Z,99468.00
2022-12-05T12:12:00.221Z,99467.00
2022-12-05T12:13:55.663Z,99470.00
2022-12-05T12:15:54.366Z,99470.00
2022-12-05T12:17:38.803Z,99468.00
2022-12-05T12:19:39.542Z,99479.00
2022-12-05T12:21:20.428Z,99480.00
2022-12-05T12:23:19.580Z,99484.00
2022-12-05T12:25:34.523Z,99478.00
2022-12-05T12:27:23.145Z,99468.00
2022-12-05T12:29:18.118Z,99482.00
2022-12-05T12:31:14.262Z,99472.00
2022-12-05T12:33:03.775Z,99472.00
2022-12-05T12:35:02.326Z,99473.00
2022-12-05T12:36:43.483Z,99471.00
2022-12-05T12:38:51.149Z,99474.00
2022-12-05T12:40:36.994Z,99473.00
2022-12-05T12:42:23.262Z,99480.00
2022-12-05T12:44:18.957Z,99478.00
2022-12-05T12:46:24.727Z,99476.00
2022-12-05T12:48:34.925Z,99468.00
2022-12-05T12:50:20.520Z,99473.00
2022-12-05T12:52:01.544Z,99467.00
2022-12-05T12:54:05.279Z,99469.00
2022-12-05T12:55:49.117Z,99468.00
2022-12-05T12:57:34.829Z,99462.00
2022-12-05T12:59:37.852Z,99459.00
2022-12-05T13:01:24.860Z,99464.00
2022-12-05T13:03:08.783Z,99454.00
2022-12-05T13:04:51.230Z,99455.00
2022-12-05T13:06:30.770Z,99457.00
2022-12-05T13:08:12.296Z,99460.00
2022-12-05T13:09:54.454Z,99445.00
2022-12-05T13:11:37.462Z,99454.00
2022-12-05T13:13:17.149Z,99455.00
2022-12-05T13:14:55.342Z,99448.00
2022-12-05T13:16:37.116Z,99454.00
2022-12-05T13:18:18.576Z,99451.00
2022-12-05T13:19:54.178Z,99451.00
2022-12-05T13:21:29.443Z,99452.00
2022-12-05T13:23:08.341Z,99457.00
2022-12-05T13:24:42.417Z,99455.00
2022-12-05T13:26:16.894Z,99458.00
2022-12-05T13:28:01.496Z,99453.00
2022-12-05T13:29:39.320Z,99457.00
2022-12-05T13:31:16.942Z,99450.00
2022-12-05T13:32:59.113Z,99454.00
2022-12-05T13:34:48.414Z,99456.00
2022-12-05T13:36:41.294Z,99449.00
2022-12-05T13:38:40.269Z,99464.00
2022-12-05T13:40:45.499Z,99463.00
2022-12-05T13:42:26.224Z,99462.00
2022-12-05T13:44:06.720Z,99463.00
2022-12-05T13:45:41.888Z,99457.00
2022-12-05T13:47:30.073Z,99458.00
2022-12-05T13:49:12.921Z,99461.00
2022-12-05T13:50:59.108Z,99458.00
2022-12-05T13:52:40.613Z,99467.00
2022-12-05T13:54:18.024Z,99474.00
2022-12-05T13:55:59.752Z,99469.00
2022-12-05T13:58:01.049Z,99471.00
2022-12-05T14:00:05.817Z,99466.00
2022-12-05T14:01:58.739Z,99471.00
2022-12-05T14:03:58.206Z,99466.00
2022-12-05T14:05:59.395Z,99472.00
2022-12-05T14:07:46.807Z,99471.00
2022-12-05T14:09:48.836Z,99465.00
2022-12-05T14:11:22.641Z,99469.00
2022-12-05T14:12:58.476Z,99467.00
2022-12-05T14:15:03.960Z,99473.00
2022-12-05T14:16:45.940Z,99475.00
2022-12-05T14:18:35.121Z,99468.00
2022-12-05T14:20:26.582Z,99474.00
2022-12-05T14:22:15.246Z,99478.00
2022-12-05T14:24:07.821Z,99482.00
2022-12-05T14:26:07.042Z,99477.00
2022-12-05T14:27:56.745Z,99478.00
2022-12-05T14:29:48.193Z,99477.00
2022-12-05T14:31:44.756Z,99484.00
2022-12-05T14:33:23.748Z,99485.00
2022-12-05T14:35:05.214Z,99489.00
2022-12-05T14:36:40.777Z,99483.00
2022-12-05T14:38:27.967Z,99482.00
2022-12-05T14:40:04.720Z,99485.00
2022-12-05T14:41:38.850Z,99484.00
2022-12-05T14:43:22.977Z,99492.00
2022-12-05T14:45:00.577Z,99492.00
2022-12-05T14:46:35.097Z,99485.00
2022-12-05T14:48:31.705Z,99490.00
2022-12-05T14:50:49.372Z,99492.00
2022-12-05T14:52:26.156Z,99498.00
2022-12-05T14:54:07.941Z,99495.00
2022-12-05T14:55:41.723Z,99496.00
2022-12-05T14:57:17.329Z,99501.00
2022-12-05T14:58:56.780Z,99493.00
2022-12-05T15:00:30.274Z,99491.00
2022-12-05T15:02:04.995Z,99495.00
2022-12-05T15:03:43.884Z,99499.00
2022-12-05T15:05:27.316Z,99498.00
2022-12-05T15:07:06.346Z,99498.00
2022-12-05T15:08:48.778Z,99491.00
2022-12-05T15:10:25.859Z,99503.00
2022-12-05T15:12:06.154Z,99509.00
2022-12-05T15:13:44.786Z,99501.00
2022-12-05T15:15:27.015Z,99504.00
2022-12-05T15:17:03.409Z,99505.00
2022-12-05T15:18:45.598Z,99506.00
2022-12-05T15:20:40.075Z,99511.00
2022-12-05T15:22:17.707Z,99514.00
2022-12-05T15:23:59.423Z,99501.00
2022-12-05T15:25:33.735Z,99504.00
2022-12-05T15:27:12.465Z,99505.00
2022-12-05T15:29:05.160Z,99506.00
2022-12-05T15:30:40.686Z,99516.00
2022-12-05T15:32:25.237Z,99510.00
2022-12-05T15:34:06.428Z,99510.00
2022-12-05T15:35:41.798Z,99509.00
2022-12-05T15:37:23.205Z,99516.00
2022-12-05T15:38:56.484Z,99519.00
2022-12-05T15:40:37.493Z,99508.00
2022-12-05T15:42:17.827Z,99521.00
2022-12-05T15:43:57.990Z,99518.00
2022-12-05T15:45:33.010Z,99520.00
2022-12-05T15:47:06.239Z,99522.00
2022-12-05T15:48:41.701Z,99526.00
2022-12-05T15:50:21.131Z,99537.00
2022-12-05T15:52:03.447Z,99530.00
2022-12-05T15:53:44.999Z,99530.00
2022-12-05T15:55:24.194Z,99530.00
2022-12-05T15:57:05.509Z,99537.00
2022-12-05T15:58:45.968Z,99526.00
2022-12-05T16:00:22.280Z,99534.00
2022-12-05T16:02:06.390Z,99531.00
2022-12-05T16:03:47.328Z,99534.00
2022-12-05T16:05:28.842Z,99535.00
2022-12-05T16:07:09.540Z,99532.00
2022-12-05T16:08:46.587Z,99533.00
2022-12-05T16:10:24.714Z,99536.00
2022-12-05T16:12:05.030Z,99535.00
2022-12-05T16:13:45.218Z,99542.00
2022-12-05T16:15:24.678Z,99522.00
2022-12-05T16:17:04.487Z,99541.00
2022-12-05T16:18:37.932Z,99538.00
2022-12-05T16:20:21.972Z,99538.00
2022-12-05T16:22:08.834Z,99529.00
2022-12-05T16:23:45.655Z,99541.00
2022-12-05T16:25:24.571Z,99538.00
2022-12-05T16:27:04.285Z,99542.00
2022-12-05T16:28:37.776Z,99540.00
2022-12-05T16:30:22.058Z,99537.00
2022-12-05T16:31:57.601Z,99549.00
2022-12-05T16:33:32.533Z,99547.00
2022-12-05T16:35:29.200Z,99538.00
2022-12-05T16:37:03.767Z,99539.00
2022-12-05T16:38:38.526Z,99544.00
2022-12-05T16:40:23.612Z,99544.00
2022-12-05T16:41:57.786Z,99543.00
2022-12-05T16:43:46.322Z,99541.00
2022-12-05T16:45:40.850Z,99547.00
2022-12-05T16:47:26.183Z,99540.00
2022-12-05T16:49:23.990Z,99547.00
2022-12-05T16:51:25.818Z,99540.00
2022-12-05T16:53:28.466Z,99549.00
2022-12-05T16:55:01.809Z,99556.00
2022-12-05T16:56:35.779Z,99553.00
2022-12-05T16:58:13.314Z,99548.00
2022-12-05T16:59:49.432Z,99552.00
2022-12-05T17:01:25.638Z,99550.00
2022-12-05T17:03:25.766Z,99560.00
2022-12-05T17:04:54.076Z,99554.00
2022-12-05T17:06:27.500Z,99542.00
2022-12-05T17:08:00.631Z,99552.00
2022-12-05T17:09:35.361Z,99544.00
2022-12-05T17:11:16.467Z,99544.00
2022-12-05T17:12:50.118Z,99550.00
2022-12-05T17:14:23.209Z,99553.00
2022-12-05T17:15:56.578Z,99545.00
2022-12-05T17:17:29.976Z,99546.00
2022-12-05T17:19:03.084Z,99546.00
2022-12-05T17:20:42.322Z,99540.00
2022-12-05T17:22:16.749Z,99539.00
2022-12-05T17:23:52.563Z,99539.00
2022-12-05T17:25:34.817Z,99547.00
2022-12-05T17:27:13.984Z,99544.00
2022-12-05T17:28:48.774Z,99534.00
2022-12-05T17:30:21.855Z,99543.00
2022-12-05T17:31:55.952Z,99549.00
2022-12-05T17:33:29.192Z,99554.00
2022-12-05T17:35:06.856Z,99552.00
2022-12-05T17:36:40.589Z,99544.00
2022-12-05T17:38:14.785Z,99560.00
2022-12-05T17:39:48.030Z,99544.00
2022-12-05T17:41:24.946Z,99555.00
2022-12-05T17:42:58.640Z,99560.00
2022-12-05T17:44:31.911Z,99563.00
2022-12-05T17:46:07.781Z,99562.00
2022-12-05T17:47:41.666Z,99553.00
2022-12-05T17:49:16.684Z,99553.00
2022-12-05T17:50:53.968Z,99566.00
2022-12-05T17:52:30.185Z,99553.00
2022-12-05T17:54:03.400Z,99561.00
2022-12-05T17:55:36.592Z,99562.00
2022-12-05T17:57:11.416Z,99565.00
2022-12-05T17:58:46.157Z,99567.00
2022-12-05T18:00:20.465Z,99567.00
2022-12-05T18:01:53.670Z,99563.00
2022-12-05T18:03:27.315Z,99565.00
2022-12-05T18:05:02.411Z,99572.00
2022-12-05T18:06:36.188Z,99572.00
2022-12-05T18:08:10.755Z,99565.00
2022-12-05T18:09:44.029Z,99563.00
2022-12-05T18:11:17.245Z,99560.00
2022-12-05T18:12:52.453Z,99563.00
2022-12-05T18:14:27.418Z,99561.00
2022-12-05T18:16:01.256Z,99556.00
2022-12-05T18:17:34.443Z,99556.00
2022-12-05T18:19:08.515Z,99568.00
2022-12-05T18:20:41.664Z,99571.00
2022-12-05T18:22:17.154Z,99569.00
2022-12-05T18:23:54.324Z,99576.00
2022-12-05T18:25:27.804Z,99569.00
2022-12-05T18:27:01.577Z,99574.00
2022-12-05T18:28:39.135Z,99570.00
2022-12-05T18:30:13.333Z,99575.00
2022-12-05T18:31:48.355Z,99575.00
2022-12-05T18:33:21.639Z,99577.00
2022-12-05T18:34:54.964Z,99583.00
2022-12-05T18:36:28.517Z,99567.00
2022-12-05T18:38:02.586Z,99570.00
2022-12-05T18:39:36.712Z,99567.00
2022-12-05T18:41:10.765Z,99583.00
2022-12-05T18:42:44.020Z,99575.00
2022-12-05T18:44:18.692Z,99567.00
2022-12-05T18:45:56.996Z,99578.00
2022-12-05T18:47:30.303Z,99576.00
2022-12-05T18:49:05.492Z,99578.00
2022-12-05T18:50:38.750Z,99577.00
2022-12-05T18:52:11.913Z,99583.00
2022-12-05T18:53:51.794Z,99575.00
2022-12-05T18:55:43.597Z,99577.00
2022-12-05T18:57:19.423Z,99578.00
2022-12-05T18:58:57.758Z,99578.00
2022-12-05T19:00:32.421Z,99580.00
2022-12-05T19:02:06.716Z,99585.00
2022-12-05T19:03:41.265Z,99581.00
2022-12-05T19:05:14.548Z,99580.00
2022-12-05T19:06:51.035Z,99582.00
2022-12-05T19:08:23.414Z,99577.00
2022-12-05T19:09:56.617Z,99588.00
2022-12-05T19:11:30.387Z,99577.00
2022-12-05T19:13:03.585Z,99584.00
2022-12-05T19:14:37.792Z,99586.00
2022-12-05T19:16:16.754Z,99593.00
2022-12-05T19:17:50.028Z,99589.00
2022-12-05T19:19:23.756Z,99601.00
2022-12-05T19:20:57.968Z,99586.00
2022-12-05T19:22:39.169Z,99597.00
2022-12-05T19:24:15.674Z,99597.00
2022-12-05T19:25:48.860Z,99602.00